Time;durP1;ratioP1;P1;durP2;ratioP2;P2;SDS_P1;SDS_P2;PMS_P1;PMS_P2;Temp;Humidity;BMP_temperature;BMP_pressure;BME280_temperature;BME280_humidity;BME280_pressure;Samples;Min_cycle;Max_cycle;Signal;HPM_P1;HPM_P2
2022/09/25 00:01:16;;;;;;;;;;;14.20;99.90;;;;;;5043925;28;19971;-65
2022/09/25 00:03:44;;;;;;;;;;;14.20;99.90;;;;;;5050455;28;20040;-65
2022/09/25 00:06:13;;;;;;;;;;;14.20;99.90;;;;;;5047243;28;19963;-65
2022/09/25 00:08:42;;;;;;;;;;;14.30;99.90;;;;;;5050275;28;19959;-65
2022/09/25 00:11:11;;;;;;;;;;;14.40;99.90;;;;;;5046653;28;19966;-65
2022/09/25 00:13:39;;;;;;;;;;;14.40;99.90;;;;;;5043965;28;19966;-65
2022/09/25 00:16:09;;;;;;;;;;;14.40;99.90;;;;;;5043316;28;19963;-64
2022/09/25 00:21:25;;;;;;;;;;;14.60;99.90;;;;;;5046579;28;19963;-65
2022/09/25 00:23:54;;;;;;;;;;;14.70;99.90;;;;;;5044834;28;19963;-65
2022/09/25 00:26:21;;;;;;;;;;;14.60;99.90;;;;;;5048876;28;20002;-64
2022/09/25 00:28:49;;;;;;;;;;;14.70;99.90;;;;;;5035325;28;19970;-65
2022/09/25 00:31:18;;;;;;;;;;;14.70;99.90;;;;;;5031218;28;19970;-65
2022/09/25 00:33:46;;;;;;;;;;;14.70;99.90;;;;;;5041674;28;19985;-64
2022/09/25 00:36:14;;;;;;;;;;;14.70;99.90;;;;;;5043259;28;19959;-63
2022/09/25 00:38:42;;;;;;;;;;;14.70;99.90;;;;;;5046263;28;19962;-64
2022/09/25 00:41:11;;;;;;;;;;;14.70;99.90;;;;;;5047077;28;19962;-64
2022/09/25 00:43:40;;;;;;;;;;;14.70;99.90;;;;;;5032074;28;19959;-64
2022/09/25 00:46:10;;;;;;;;;;;14.70;99.90;;;;;;5041010;28;19970;-64
2022/09/25 00:48:42;;;;;;;;;;;14.70;99.90;;;;;;5030781;28;20009;-63
2022/09/25 00:51:09;;;;;;;;;;;14.70;99.90;;;;;;5042346;28;19963;-64
2022/09/25 00:53:39;;;;;;;;;;;14.70;99.90;;;;;;5027279;28;19969;-64
2022/09/25 00:56:09;;;;;;;;;;;14.70;99.90;;;;;;5039170;28;19963;-65
2022/09/25 00:58:39;;;;;;;;;;;14.80;99.90;;;;;;5038090;28;19969;-64
2022/09/25 01:01:07;;;;;;;;;;;14.70;99.90;;;;;;5037263;28;19963;-64
2022/09/25 01:03:35;;;;;;;;;;;14.80;99.90;;;;;;5045835;28;20012;-65
2022/09/25 01:06:03;;;;;;;;;;;14.70;99.90;;;;;;5046548;28;19962;-65
2022/09/25 01:08:32;;;;;;;;;;;14.60;99.90;;;;;;5045831;28;20352;-65
2022/09/25 01:10:59;;;;;;;;;;;14.60;99.90;;;;;;5046016;28;19969;-65
2022/09/25 01:13:28;;;;;;;;;;;14.50;99.90;;;;;;5045815;28;19962;-65
2022/09/25 01:16:02;;;;;;;;;;;14.50;99.90;;;;;;5038120;28;19959;-64
2022/09/25 01:18:37;;;;;;;;;;;14.40;99.90;;;;;;5041729;28;20451;-64
2022/09/25 01:21:10;;;;;;;;;;;14.40;99.90;;;;;;5039156;28;20465;-66
2022/09/25 01:23:48;;;;;;;;;;;14.50;99.90;;;;;;5041726;28;19993;-65
2022/09/25 01:26:25;;;;;;;;;;;14.50;99.90;;;;;;5041990;28;19963;-65
2022/09/25 01:29:00;;;;;;;;;;;14.50;99.90;;;;;;5031305;28;19960;-65
2022/09/25 01:31:33;;;;;;;;;;;14.50;99.90;;;;;;5041071;28;19962;-65
2022/09/25 01:34:06;;;;;;;;;;;14.50;99.90;;;;;;5033345;28;19969;-65
2022/09/25 01:36:36;;;;;;;;;;;14.50;99.90;;;;;;5043289;28;20417;-65
2022/09/25 01:39:08;;;;;;;;;;;14.50;99.90;;;;;;5039501;28;19969;-65
2022/09/25 01:41:39;;;;;;;;;;;14.50;99.90;;;;;;5041557;28;19963;-65
2022/09/25 01:44:12;;;;;;;;;;;14.50;99.90;;;;;;5030240;28;20045;-66
2022/09/25 01:46:42;;;;;;;;;;;14.40;99.90;;;;;;5034021;28;19959;-65
2022/09/25 01:49:13;;;;;;;;;;;14.50;99.90;;;;;;5032532;28;19970;-66
2022/09/25 01:51:42;;;;;;;;;;;14.40;99.90;;;;;;5032113;28;20439;-65
2022/09/25 01:54:10;;;;;;;;;;;14.50;99.90;;;;;;5041529;28;19988;-66
2022/09/25 01:56:39;;;;;;;;;;;14.50;99.90;;;;;;5033169;28;20005;-65
2022/09/25 01:59:10;;;;;;;;;;;14.50;99.90;;;;;;5037450;28;19959;-65
2022/09/25 02:01:40;;;;;;;;;;;14.60;99.90;;;;;;5044357;28;19965;-66
2022/09/25 02:04:11;;;;;;;;;;;14.50;99.90;;;;;;5046514;28;20006;-66
2022/09/25 02:06:41;;;;;;;;;;;14.50;99.90;;;;;;5033622;28;20037;-65
2022/09/25 02:09:11;;;;;;;;;;;14.60;99.90;;;;;;5031110;28;19959;-66
2022/09/25 02:11:41;;;;;;;;;;;14.50;99.90;;;;;;5033076;28;19963;-65
2022/09/25 02:14:11;;;;;;;;;;;14.50;99.90;;;;;;5032927;28;20526;-66
2022/09/25 02:16:42;;;;;;;;;;;14.50;99.90;;;;;;5037502;28;20385;-66
2022/09/25 02:22:02;;;;;;;;;;;14.50;99.90;;;;;;5037050;28;20058;-64
2022/09/25 02:24:33;;;;;;;;;;;14.40;99.90;;;;;;5043176;28;20005;-64
2022/09/25 02:27:01;;;;;;;;;;;14.40;99.90;;;;;;5044977;28;19959;-64
2022/09/25 02:29:31;;;;;;;;;;;14.40;99.90;;;;;;5038487;28;20054;-64
2022/09/25 02:32:02;;;;;;;;;;;14.40;99.90;;;;;;5036285;28;19970;-64
2022/09/25 02:34:31;;;;;;;;;;;14.30;99.90;;;;;;5043284;28;19973;-64
2022/09/25 02:37:00;;;;;;;;;;;14.30;99.90;;;;;;5045281;28;21369;-64
2022/09/25 02:39:30;;;;;;;;;;;14.20;99.90;;;;;;5040894;28;20021;-64
2022/09/25 02:42:19;;;;;;;;;;;14.20;99.90;;;;;;5036895;28;20346;-65
2022/09/25 02:44:55;;;;;;;;;;;14.20;99.90;;;;;;5033915;28;20343;-65
2022/09/25 02:47:31;;;;;;;;;;;14.30;99.90;;;;;;5030911;28;20058;-64
2022/09/25 02:50:04;;;;;;;;;;;14.20;99.90;;;;;;5036651;28;19967;-64
2022/09/25 02:52:35;;;;;;;;;;;14.20;99.90;;;;;;5034953;28;20065;-65
2022/09/25 02:55:05;;;;;;;;;;;14.30;99.90;;;;;;5042149;28;19967;-64
2022/09/25 02:57:37;;;;;;;;;;;14.30;99.90;;;;;;5031886;28;20085;-64
2022/09/25 03:00:07;;;;;;;;;;;14.30;99.90;;;;;;5041564;28;19967;-65
2022/09/25 03:02:36;;;;;;;;;;;14.30;99.90;;;;;;5042747;28;19963;-64
2022/09/25 03:05:05;;;;;;;;;;;14.30;99.90;;;;;;5031325;28;19973;-65
2022/09/25 03:08:36;;;;;;;;;;;14.20;99.90;;;;;;5038911;28;20450;-65
2022/09/25 03:10:21;;;;;;;;;;;14.20;99.90;;;;;;5045882;28;19973;-65
2022/09/25 03:12:48;;;;;;;;;;;14.20;99.90;;;;;;5033946;28;20377;-65
2022/09/25 03:15:18;;;;;;;;;;;14.10;99.90;;;;;;5039246;28;19967;-64
2022/09/25 03:17:47;;;;;;;;;;;14.10;99.90;;;;;;5037288;28;19967;-64
2022/09/25 03:20:15;;;;;;;;;;;14.10;99.90;;;;;;5045098;28;19967;-64
2022/09/25 03:22:42;;;;;;;;;;;14.10;99.90;;;;;;5037759;28;19963;-64
2022/09/25 03:25:10;;;;;;;;;;;14.10;99.90;;;;;;5040890;28;20021;-65
2022/09/25 03:27:38;;;;;;;;;;;14.10;99.90;;;;;;5037866;28;19970;-64
2022/09/25 03:30:06;;;;;;;;;;;14.10;99.90;;;;;;5038307;28;19969;-64
2022/09/25 03:32:37;;;;;;;;;;;14.10;99.90;;;;;;5041081;28;19963;-64
2022/09/25 03:35:06;;;;;;;;;;;14.10;99.90;;;;;;5038453;28;19967;-65
2022/09/25 03:37:34;;;;;;;;;;;14.10;99.90;;;;;;5042970;28;19969;-65
2022/09/25 03:40:01;;;;;;;;;;;14.10;99.90;;;;;;5043218;28;19968;-65
2022/09/25 03:42:30;;;;;;;;;;;14.20;99.90;;;;;;5038292;28;20439;-65
2022/09/25 03:44:58;;;;;;;;;;;14.20;99.90;;;;;;5035919;28;20344;-65
2022/09/25 03:47:25;;;;;;;;;;;14.30;99.90;;;;;;5039610;28;19966;-65
2022/09/25 03:49:54;;;;;;;;;;;14.20;99.90;;;;;;5037503;28;19967;-65
2022/09/25 03:52:22;;;;;;;;;;;14.20;99.90;;;;;;5034758;28;20471;-64
2022/09/25 03:54:50;;;;;;;;;;;14.30;99.90;;;;;;5034319;28;20437;-65
2022/09/25 03:57:17;;;;;;;;;;;14.30;99.90;;;;;;5045742;28;19967;-65
2022/09/25 03:59:45;;;;;;;;;;;14.30;99.90;;;;;;5029099;28;19975;-64
2022/09/25 04:02:13;;;;;;;;;;;14.40;99.90;;;;;;5029298;28;19963;-64
2022/09/25 04:04:41;;;;;;;;;;;14.30;99.90;;;;;;5029229;28;20458;-64
2022/09/25 04:07:10;;;;;;;;;;;14.40;99.90;;;;;;5011955;28;19968;-65
2022/09/25 04:09:38;;;;;;;;;;;14.30;99.90;;;;;;5027781;28;20017;-65
2022/09/25 04:12:07;;;;;;;;;;;14.40;99.90;;;;;;5028619;28;19973;-65
2022/09/25 04:14:35;;;;;;;;;;;14.40;99.90;;;;;;5017551;28;19969;-65
2022/09/25 04:17:03;;;;;;;;;;;14.30;99.90;;;;;;5032002;28;19963;-65
2022/09/25 04:19:31;;;;;;;;;;;14.30;99.90;;;;;;5029543;28;20447;-65
2022/09/25 04:21:58;;;;;;;;;;;14.20;99.90;;;;;;5030105;28;19982;-65
2022/09/25 04:27:13;;;;;;;;;;;14.00;99.90;;;;;;5032022;28;19975;-65
2022/09/25 04:29:41;;;;;;;;;;;14.00;99.90;;;;;;5032581;28;20656;-65
2022/09/25 04:34:54;;;;;;;;;;;14.00;99.90;;;;;;5032581;28;20465;-65
2022/09/25 04:37:25;;;;;;;;;;;13.90;99.90;;;;;;5031900;28;19971;-65
2022/09/25 04:39:54;;;;;;;;;;;13.90;99.90;;;;;;5035597;28;19982;-65
2022/09/25 04:42:23;;;;;;;;;;;13.80;99.90;;;;;;5032987;28;20016;-65
2022/09/25 04:44:52;;;;;;;;;;;13.80;99.90;;;;;;5035507;28;19975;-65
2022/09/25 04:47:20;;;;;;;;;;;13.80;99.90;;;;;;5034823;28;19975;-65
2022/09/25 04:49:48;;;;;;;;;;;13.80;99.90;;;;;;5037927;28;20001;-65
2022/09/25 04:52:16;;;;;;;;;;;13.80;99.90;;;;;;5075637;22;19971;-64
2022/09/25 04:54:44;;;;;;;;;;;13.80;99.90;;;;;;5070137;28;19970;-65
2022/09/25 04:57:15;;;;;;;;;;;13.80;99.90;;;;;;5071795;28;19981;-63
2022/09/25 05:00:04;;;;;;;;;;;13.70;99.90;;;;;;5075440;28;19975;-64
2022/09/25 05:02:31;;;;;;;;;;;13.80;99.90;;;;;;5073302;28;19971;-65
2022/09/25 05:04:59;;;;;;;;;;;13.70;99.90;;;;;;5074137;28;20131;-63
2022/09/25 05:07:27;;;;;;;;;;;13.70;99.90;;;;;;5071580;28;20578;-64
2022/09/25 05:09:55;;;;;;;;;;;13.60;99.90;;;;;;5074037;28;19976;-64
2022/09/25 05:12:24;;;;;;;;;;;13.60;99.90;;;;;;5073123;28;19990;-64
2022/09/25 05:14:52;;;;;;;;;;;13.50;99.90;;;;;;5077910;28;20056;-63
2022/09/25 05:17:19;;;;;;;;;;;13.50;99.90;;;;;;5078795;28;19981;-64
2022/09/25 05:19:47;;;;;;;;;;;13.40;99.90;;;;;;5072533;28;19970;-64
2022/09/25 05:22:15;;;;;;;;;;;13.40;99.90;;;;;;5075047;28;21560;-63
2022/09/25 05:24:43;;;;;;;;;;;13.40;99.90;;;;;;5071597;28;19976;-64
2022/09/25 05:27:11;;;;;;;;;;;13.30;99.90;;;;;;5074979;28;19974;-64
2022/09/25 05:29:40;;;;;;;;;;;13.30;99.90;;;;;;5075092;28;19970;-64
2022/09/25 05:32:08;;;;;;;;;;;13.30;99.90;;;;;;5075117;28;19972;-63
2022/09/25 05:34:35;;;;;;;;;;;13.30;99.90;;;;;;5074252;28;19980;-64
2022/09/25 05:37:03;;;;;;;;;;;13.30;99.90;;;;;;5075306;28;20353;-64
2022/09/25 05:39:31;;;;;;;;;;;13.30;99.90;;;;;;5069958;28;19993;-63
2022/09/25 05:41:58;;;;;;;;;;;13.30;99.90;;;;;;5077979;28;19970;-65
2022/09/25 05:44:27;;;;;;;;;;;13.30;99.90;;;;;;5071747;28;19970;-64
2022/09/25 05:46:56;;;;;;;;;;;13.30;99.90;;;;;;5071925;28;20458;-64
2022/09/25 05:49:24;;;;;;;;;;;13.40;99.90;;;;;;5072429;28;19985;-64
2022/09/25 05:51:52;;;;;;;;;;;13.40;99.90;;;;;;5070084;28;19977;-64
2022/09/25 05:54:19;;;;;;;;;;;13.50;99.90;;;;;;5070856;28;21577;-64
2022/09/25 05:56:47;;;;;;;;;;;13.50;99.90;;;;;;5074383;28;19970;-64
2022/09/25 05:59:15;;;;;;;;;;;13.50;99.90;;;;;;5072927;28;19971;-65
2022/09/25 06:01:42;;;;;;;;;;;13.40;99.90;;;;;;5072892;28;19970;-64
2022/09/25 06:04:11;;;;;;;;;;;13.30;99.90;;;;;;5077698;28;19989;-64
2022/09/25 06:06:39;;;;;;;;;;;13.30;99.90;;;;;;5073010;28;20016;-64
2022/09/25 06:09:07;;;;;;;;;;;13.30;99.90;;;;;;5074039;28;19966;-64
2022/09/25 06:11:35;;;;;;;;;;;13.30;99.90;;;;;;5071752;28;19969;-64
2022/09/25 06:14:02;;;;;;;;;;;13.30;99.90;;;;;;5077728;28;19966;-64
2022/09/25 06:16:30;;;;;;;;;;;13.30;99.90;;;;;;5074466;28;20798;-64
2022/09/25 06:18:58;;;;;;;;;;;13.30;99.90;;;;;;5074553;28;20044;-64
2022/09/25 06:21:27;;;;;;;;;;;13.30;99.90;;;;;;5069995;28;20482;-64
2022/09/25 06:23:55;;;;;;;;;;;13.30;99.90;;;;;;5073849;28;20353;-65
2022/09/25 06:26:24;;;;;;;;;;;13.20;99.90;;;;;;5077651;28;19981;-64
2022/09/25 06:28:53;;;;;;;;;;;13.20;99.90;;;;;;5075177;28;20004;-65
2022/09/25 06:31:20;;;;;;;;;;;13.30;99.90;;;;;;5073756;28;19971;-64
2022/09/25 06:33:50;;;;;;;;;;;13.30;99.90;;;;;;5073303;28;19974;-64
2022/09/25 06:36:17;;;;;;;;;;;13.30;99.90;;;;;;5074784;28;19974;-64
2022/09/25 06:38:47;;;;;;;;;;;13.40;99.90;;;;;;5076216;28;19975;-63
2022/09/25 06:41:15;;;;;;;;;;;13.50;99.90;;;;;;5073241;28;20001;-65
2022/09/25 06:43:43;;;;;;;;;;;13.50;99.90;;;;;;5073054;28;19970;-65
2022/09/25 06:46:10;;;;;;;;;;;13.50;99.90;;;;;;5069380;28;19974;-64
2022/09/25 06:48:39;;;;;;;;;;;13.60;99.90;;;;;;5071162;28;19962;-64
2022/09/25 06:51:07;;;;;;;;;;;13.50;99.90;;;;;;5072817;28;19977;-64
2022/09/25 06:53:35;;;;;;;;;;;13.60;99.90;;;;;;5068802;28;19963;-66
2022/09/25 06:56:04;;;;;;;;;;;13.60;99.90;;;;;;5072279;28;19972;-65
2022/09/25 06:58:32;;;;;;;;;;;13.60;99.90;;;;;;5073180;28;19966;-65
2022/09/25 07:00:59;;;;;;;;;;;13.60;99.90;;;;;;5071292;28;20452;-64
2022/09/25 07:03:44;;;;;;;;;;;13.60;99.90;;;;;;5070156;28;19992;-64
2022/09/25 07:06:13;;;;;;;;;;;13.70;99.90;;;;;;5071959;28;20454;-64
2022/09/25 07:08:42;;;;;;;;;;;13.70;99.90;;;;;;5071664;28;20534;-64
2022/09/25 07:11:14;;;;;;;;;;;13.80;99.90;;;;;;5073360;28;19966;-64
2022/09/25 07:13:41;;;;;;;;;;;13.80;99.90;;;;;;5071307;28;19978;-64
2022/09/25 07:16:11;;;;;;;;;;;13.90;99.90;;;;;;5073614;28;19973;-64
2022/09/25 07:18:39;;;;;;;;;;;13.90;99.90;;;;;;5067670;28;20016;-65
2022/09/25 07:21:08;;;;;;;;;;;14.00;99.90;;;;;;5073888;28;19974;-64
2022/09/25 07:23:36;;;;;;;;;;;14.00;99.90;;;;;;5065518;28;20417;-64
2022/09/25 07:26:05;;;;;;;;;;;14.10;99.90;;;;;;5071668;28;19967;-63
2022/09/25 07:28:35;;;;;;;;;;;14.20;99.90;;;;;;5071594;28;19969;-64
2022/09/25 07:31:16;;;;;;;;;;;14.30;99.90;;;;;;5074708;28;19970;-64
2022/09/25 07:33:44;;;;;;;;;;;14.30;99.90;;;;;;5070409;28;19974;-64
2022/09/25 07:36:13;;;;;;;;;;;14.50;99.90;;;;;;5074213;28;19981;-64
2022/09/25 07:38:41;;;;;;;;;;;14.60;99.90;;;;;;5072623;28;19976;-64
2022/09/25 07:41:10;;;;;;;;;;;14.60;99.90;;;;;;5076188;28;19966;-64
2022/09/25 07:43:41;;;;;;;;;;;14.60;99.90;;;;;;5069761;28;19963;-64
2022/09/25 07:46:08;;;;;;;;;;;14.50;99.90;;;;;;5072769;28;19974;-64
2022/09/25 07:48:36;;;;;;;;;;;14.60;99.90;;;;;;5065354;28;20361;-64
2022/09/25 07:51:05;;;;;;;;;;;14.50;99.90;;;;;;5076290;28;19967;-64
2022/09/25 07:53:33;;;;;;;;;;;14.50;99.90;;;;;;5071570;28;19966;-64
2022/09/25 07:56:01;;;;;;;;;;;14.40;99.90;;;;;;5071814;28;19974;-64
2022/09/25 07:58:33;;;;;;;;;;;14.40;99.90;;;;;;5072822;28;20012;-64
2022/09/25 08:01:04;;;;;;;;;;;14.30;99.90;;;;;;5079886;28;20057;-64
2022/09/25 08:03:32;;;;;;;;;;;14.30;99.90;;;;;;5070979;28;20008;-64
2022/09/25 08:06:00;;;;;;;;;;;14.40;99.90;;;;;;5077106;28;19975;-63
2022/09/25 08:08:28;;;;;;;;;;;14.40;99.90;;;;;;5079753;28;19971;-64
2022/09/25 08:10:59;;;;;;;;;;;14.30;99.90;;;;;;5077857;28;20100;-63
2022/09/25 08:13:27;;;;;;;;;;;14.30;99.90;;;;;;5073141;28;19993;-64
2022/09/25 08:15:56;;;;;;;;;;;14.30;99.90;;;;;;5078460;28;19974;-65
2022/09/25 08:18:25;;;;;;;;;;;14.30;99.90;;;;;;5071684;28;19977;-63
2022/09/25 08:20:52;;;;;;;;;;;14.30;99.90;;;;;;5074779;28;19974;-64
2022/09/25 08:23:20;;;;;;;;;;;14.20;99.90;;;;;;5074549;28;20431;-64
2022/09/25 08:25:48;;;;;;;;;;;14.20;99.90;;;;;;5073272;28;19981;-65
2022/09/25 08:28:16;;;;;;;;;;;14.30;99.90;;;;;;5075953;28;19980;-64
2022/09/25 08:30:44;;;;;;;;;;;14.30;99.90;;;;;;5076954;28;19981;-63
2022/09/25 08:33:12;;;;;;;;;;;14.30;99.90;;;;;;5074361;28;19970;-64
2022/09/25 08:35:43;;;;;;;;;;;14.30;99.90;;;;;;5059553;28;19973;-63
2022/09/25 08:38:11;;;;;;;;;;;14.30;99.90;;;;;;5075992;28;19977;-64
2022/09/25 08:40:45;;;;;;;;;;;14.30;99.90;;;;;;5071672;28;19962;-64
2022/09/25 08:43:14;;;;;;;;;;;14.30;99.90;;;;;;5073410;28;20057;-64
2022/09/25 08:51:18;;;;;;;;;;;14.20;99.90;;;;;;5072098;28;19981;-64
2022/09/25 08:53:46;;;;;;;;;;;14.20;99.90;;;;;;5077885;28;21064;-63
2022/09/25 08:56:20;;;;;;;;;;;14.30;99.90;;;;;;5070600;28;19977;-65
2022/09/25 08:58:51;;;;;;;;;;;14.20;99.90;;;;;;5075909;28;19974;-64
2022/09/25 09:01:20;;;;;;;;;;;14.30;99.90;;;;;;5071427;28;19981;-64
2022/09/25 09:03:50;;;;;;;;;;;14.30;99.90;;;;;;5077254;28;19974;-64
2022/09/25 09:06:19;;;;;;;;;;;14.20;99.90;;;;;;5071079;28;20448;-65
2022/09/25 09:08:48;;;;;;;;;;;14.10;99.90;;;;;;5073038;28;19974;-63
2022/09/25 09:11:17;;;;;;;;;;;14.20;99.90;;;;;;5070949;28;19981;-64
2022/09/25 09:13:48;;;;;;;;;;;14.10;99.90;;;;;;5070532;28;19974;-64
2022/09/25 09:16:19;;;;;;;;;;;14.00;99.90;;;;;;5074009;28;19970;-64
2022/09/25 09:18:46;;;;;;;;;;;13.90;99.90;;;;;;5069746;28;20538;-65
2022/09/25 09:21:21;;;;;;;;;;;13.90;99.90;;;;;;5068347;28;20338;-64
2022/09/25 09:23:57;;;;;;;;;;;13.80;99.90;;;;;;5070973;28;19981;-63
2022/09/25 09:26:28;;;;;;;;;;;13.70;99.90;;;;;;5071483;28;20784;-63
2022/09/25 09:29:04;;;;;;;;;;;13.70;99.90;;;;;;5073676;28;20005;-63
2022/09/25 09:31:37;;;;;;;;;;;13.70;99.90;;;;;;5073648;28;19966;-63
2022/09/25 09:34:20;;;;;;;;;;;13.80;99.90;;;;;;5071218;28;19971;-64
2022/09/25 09:36:49;;;;;;;;;;;13.70;99.90;;;;;;5076294;28;19987;-62
2022/09/25 09:39:20;;;;;;;;;;;13.80;99.90;;;;;;5072905;28;20000;-63
2022/09/25 09:41:54;;;;;;;;;;;13.90;99.90;;;;;;5072548;28;20065;-62
2022/09/25 09:44:28;;;;;;;;;;;13.90;99.90;;;;;;5073049;28;19977;-61
2022/09/25 09:46:59;;;;;;;;;;;13.90;99.90;;;;;;5075335;28;19978;-62
2022/09/25 09:49:29;;;;;;;;;;;13.90;99.90;;;;;;5075684;28;19970;-62
2022/09/25 09:52:00;;;;;;;;;;;13.90;99.90;;;;;;5071907;28;20440;-64
2022/09/25 09:54:34;;;;;;;;;;;14.00;99.90;;;;;;5074887;28;19981;-63
2022/09/25 09:57:05;;;;;;;;;;;14.00;99.90;;;;;;5073485;28;19966;-63
2022/09/25 09:59:39;;;;;;;;;;;14.00;99.90;;;;;;5074554;28;19981;-62
2022/09/25 10:02:13;;;;;;;;;;;14.10;99.90;;;;;;5076622;28;19977;-62
2022/09/25 10:04:42;;;;;;;;;;;14.10;99.90;;;;;;5070167;28;19977;-63
2022/09/25 10:07:12;;;;;;;;;;;14.10;99.90;;;;;;5073644;28;19976;-63
2022/09/25 10:09:41;;;;;;;;;;;14.10;99.90;;;;;;5070800;28;19966;-63
2022/09/25 10:12:12;;;;;;;;;;;14.20;99.90;;;;;;5070602;28;19973;-62
2022/09/25 10:14:42;;;;;;;;;;;14.20;99.90;;;;;;5068285;28;19976;-62
2022/09/25 10:17:11;;;;;;;;;;;14.30;99.90;;;;;;5068790;28;19971;-62
2022/09/25 10:19:44;;;;;;;;;;;14.20;99.90;;;;;;5071814;28;19962;-62
2022/09/25 10:22:14;;;;;;;;;;;14.20;99.90;;;;;;5067087;28;19977;-62
2022/09/25 10:24:53;;;;;;;;;;;14.20;99.90;;;;;;5074999;28;20028;-63
2022/09/25 10:27:25;;;;;;;;;;;14.30;99.90;;;;;;5075766;28;19974;-63
2022/09/25 10:30:00;;;;;;;;;;;14.40;99.90;;;;;;5072904;28;19974;-63
2022/09/25 10:32:29;;;;;;;;;;;14.30;99.90;;;;;;5071628;28;19971;-64
2022/09/25 10:34:57;;;;;;;;;;;14.40;99.90;;;;;;5076331;28;20003;-63
2022/09/25 10:37:29;;;;;;;;;;;14.40;99.90;;;;;;5070903;28;19967;-63
2022/09/25 10:40:02;;;;;;;;;;;14.40;99.90;;;;;;5069932;28;19981;-63
2022/09/25 10:42:37;;;;;;;;;;;14.40;99.90;;;;;;5064310;28;19970;-62
2022/09/25 10:45:28;;;;;;;;;;;14.30;99.90;;;;;;5070911;28;20066;-63
2022/09/25 10:50:41;;;;;;;;;;;14.30;99.90;;;;;;5071312;28;19980;-63
2022/09/25 10:53:25;;;;;;;;;;;14.30;99.90;;;;;;5081530;22;19970;-66
2022/09/25 10:55:57;;;;;;;;;;;14.30;99.90;;;;;;5060317;28;19992;-66
2022/09/25 10:58:29;;;;;;;;;;;14.30;99.90;;;;;;5059627;28;19977;-66
2022/09/25 11:00:58;;;;;;;;;;;14.30;99.90;;;;;;5059979;28;19970;-66
2022/09/25 11:03:27;;;;;;;;;;;14.30;99.90;;;;;;5050957;28;19970;-64
2022/09/25 11:05:56;;;;;;;;;;;14.40;99.90;;;;;;5049255;28;20366;-66
2022/09/25 11:08:25;;;;;;;;;;;14.50;99.90;;;;;;5053230;28;19975;-66
2022/09/25 11:10:56;;;;;;;;;;;14.50;99.90;;;;;;5053256;28;19975;-66
2022/09/25 11:13:26;;;;;;;;;;;14.60;99.90;;;;;;5044468;28;19971;-67
2022/09/25 11:15:58;;;;;;;;;;;14.60;99.90;;;;;;5047642;28;19975;-66
2022/09/25 11:18:37;;;;;;;;;;;14.60;99.90;;;;;;5049313;28;19990;-67
2022/09/25 11:21:05;;;;;;;;;;;14.60;99.90;;;;;;5050435;28;19963;-66
2022/09/25 11:23:36;;;;;;;;;;;14.70;99.90;;;;;;5047592;28;20431;-67
2022/09/25 11:26:07;;;;;;;;;;;14.60;99.90;;;;;;5050266;28;19963;-66
2022/09/25 11:28:38;;;;;;;;;;;14.50;99.90;;;;;;5047748;28;21000;-66
2022/09/25 11:31:15;;;;;;;;;;;14.50;99.90;;;;;;5047779;28;19978;-67
2022/09/25 11:33:46;;;;;;;;;;;14.50;99.90;;;;;;5047475;28;19997;-66
2022/09/25 11:36:17;;;;;;;;;;;14.40;99.90;;;;;;5049070;28;21178;-66
2022/09/25 11:41:35;;;;;;;;;;;14.30;99.90;;;;;;5049907;28;20012;-66
2022/09/25 11:44:14;;;;;;;;;;;14.30;99.90;;;;;;5044370;28;19967;-65
2022/09/25 11:46:49;;;;;;;;;;;14.30;99.90;;;;;;5047069;28;19973;-64
2022/09/25 11:49:19;;;;;;;;;;;14.10;99.90;;;;;;5048489;28;19984;-65
2022/09/25 11:51:57;;;;;;;;;;;14.10;99.90;;;;;;5049025;28;19975;-66
2022/09/25 11:54:31;;;;;;;;;;;14.00;99.90;;;;;;5047262;28;21489;-66
2022/09/25 11:57:04;;;;;;;;;;;14.00;99.90;;;;;;5050353;28;19974;-65
2022/09/25 11:59:40;;;;;;;;;;;14.10;99.90;;;;;;5047523;28;20697;-66
2022/09/25 12:02:16;;;;;;;;;;;14.10;99.90;;;;;;5048471;28;19977;-66
2022/09/25 12:04:51;;;;;;;;;;;14.20;99.90;;;;;;5046387;28;20039;-65
2022/09/25 12:07:27;;;;;;;;;;;14.10;99.90;;;;;;5049503;28;19977;-66
2022/09/25 12:10:04;;;;;;;;;;;14.20;99.90;;;;;;5047887;28;19982;-66
2022/09/25 12:12:38;;;;;;;;;;;14.20;99.90;;;;;;5049771;28;19977;-67
2022/09/25 12:15:13;;;;;;;;;;;14.20;99.90;;;;;;5046926;28;19974;-67
2022/09/25 12:17:46;;;;;;;;;;;14.20;99.90;;;;;;5049787;28;19971;-67
2022/09/25 12:20:18;;;;;;;;;;;14.20;99.90;;;;;;5054472;28;20701;-66
2022/09/25 12:22:50;;;;;;;;;;;14.10;99.90;;;;;;5052760;28;19985;-66
2022/09/25 12:25:25;;;;;;;;;;;14.10;99.90;;;;;;5051636;28;20363;-67
2022/09/25 12:27:57;;;;;;;;;;;14.10;99.90;;;;;;5051444;28;20784;-66
2022/09/25 12:30:32;;;;;;;;;;;14.10;99.90;;;;;;5043676;28;19994;-67
2022/09/25 12:33:09;;;;;;;;;;;14.00;99.90;;;;;;5047400;28;20364;-67
2022/09/25 12:35:40;;;;;;;;;;;14.10;99.90;;;;;;5044751;28;19967;-67
2022/09/25 12:38:12;;;;;;;;;;;14.10;99.90;;;;;;5050497;28;19966;-66
2022/09/25 12:40:43;;;;;;;;;;;14.00;99.90;;;;;;5047757;28;20060;-67
2022/09/25 12:43:17;;;;;;;;;;;14.00;99.90;;;;;;5047397;28;19982;-66
2022/09/25 12:45:48;;;;;;;;;;;14.00;99.90;;;;;;5052388;28;19971;-66
2022/09/25 12:48:24;;;;;;;;;;;14.00;99.90;;;;;;5053657;28;20068;-67
2022/09/25 12:50:54;;;;;;;;;;;14.00;99.90;;;;;;5054146;28;19974;-67
2022/09/25 12:53:24;;;;;;;;;;;13.80;99.90;;;;;;5051195;28;19976;-67
2022/09/25 12:55:55;;;;;;;;;;;13.80;99.90;;;;;;5052490;28;19981;-66
2022/09/25 12:58:30;;;;;;;;;;;13.80;99.90;;;;;;5058895;28;21408;-66
2022/09/25 13:01:02;;;;;;;;;;;13.80;99.90;;;;;;5048473;28;20065;-67
2022/09/25 13:03:42;;;;;;;;;;;13.80;99.90;;;;;;5051567;28;19977;-67
2022/09/25 13:06:11;;;;;;;;;;;13.80;99.90;;;;;;5053760;28;19973;-67
2022/09/25 13:08:41;;;;;;;;;;;13.70;99.90;;;;;;5049481;28;19969;-66
2022/09/25 13:11:12;;;;;;;;;;;13.70;99.90;;;;;;5053821;28;19981;-66
2022/09/25 13:13:44;;;;;;;;;;;13.60;99.90;;;;;;5047460;28;19995;-67
2022/09/25 13:16:14;;;;;;;;;;;13.50;99.90;;;;;;5057006;28;20014;-66
2022/09/25 13:18:47;;;;;;;;;;;13.50;99.90;;;;;;5053513;28;19970;-66
2022/09/25 13:21:25;;;;;;;;;;;13.50;99.90;;;;;;5053306;28;20443;-67
2022/09/25 13:23:54;;;;;;;;;;;13.40;99.90;;;;;;5054689;28;20616;-66
2022/09/25 13:26:23;;;;;;;;;;;13.40;99.90;;;;;;5054251;28;19977;-67
2022/09/25 13:28:56;;;;;;;;;;;13.40;99.90;;;;;;5053947;28;20825;-67
2022/09/25 13:31:26;;;;;;;;;;;13.40;99.90;;;;;;5049609;28;20493;-66
2022/09/25 13:33:55;;;;;;;;;;;13.40;99.90;;;;;;5052098;28;19974;-66
2022/09/25 13:36:34;;;;;;;;;;;13.40;99.90;;;;;;5052686;28;19981;-68
2022/09/25 13:41:58;;;;;;;;;;;13.30;99.90;;;;;;5021574;28;19975;-67
2022/09/25 13:44:48;;;;;;;;;;;13.30;99.90;;;;;;5045617;28;19971;-68
2022/09/25 13:47:36;;;;;;;;;;;13.30;99.90;;;;;;5052489;28;19981;-65
2022/09/25 13:50:07;;;;;;;;;;;13.30;99.90;;;;;;5047833;28;20002;-67
2022/09/25 13:53:15;;;;;;;;;;;13.20;99.90;;;;;;5051911;28;19971;-66
2022/09/25 13:55:40;;;;;;;;;;;13.20;99.90;;;;;;5048321;28;20483;-66
2022/09/25 13:58:16;;;;;;;;;;;13.20;99.90;;;;;;5050387;28;19975;-66
2022/09/25 14:00:54;;;;;;;;;;;13.20;99.90;;;;;;5048936;28;19975;-66
2022/09/25 14:03:30;;;;;;;;;;;13.20;99.90;;;;;;5047829;28;19970;-67
2022/09/25 14:05:59;;;;;;;;;;;13.10;99.90;;;;;;5057624;28;20433;-68
2022/09/25 14:08:28;;;;;;;;;;;13.20;99.90;;;;;;5049948;28;19977;-65
2022/09/25 14:10:57;;;;;;;;;;;13.20;99.90;;;;;;5048960;28;19982;-66
2022/09/25 14:13:26;;;;;;;;;;;13.20;99.90;;;;;;5046285;28;19977;-66
2022/09/25 14:15:57;;;;;;;;;;;13.20;99.90;;;;;;5049985;28;19981;-67
2022/09/25 14:18:31;;;;;;;;;;;13.30;99.90;;;;;;5047983;28;19974;-66
2022/09/25 14:21:00;;;;;;;;;;;13.30;99.90;;;;;;5052015;28;19975;-66
2022/09/25 14:23:29;;;;;;;;;;;13.30;99.90;;;;;;5047671;28;20204;-66
2022/09/25 14:25:58;;;;;;;;;;;13.40;99.90;;;;;;5050028;28;19977;-66
2022/09/25 14:28:27;;;;;;;;;;;13.30;99.90;;;;;;5049832;28;19971;-66
2022/09/25 14:31:03;;;;;;;;;;;13.50;99.90;;;;;;5047889;28;19977;-67
2022/09/25 14:33:49;;;;;;;;;;;13.50;99.90;;;;;;5049190;28;20451;-66
2022/09/25 14:36:21;;;;;;;;;;;13.60;99.90;;;;;;5052960;28;19981;-66
2022/09/25 14:39:04;;;;;;;;;;;13.60;99.90;;;;;;5055225;28;19974;-66
2022/09/25 14:41:45;;;;;;;;;;;13.70;99.90;;;;;;5045410;28;19978;-66
2022/09/25 14:44:25;;;;;;;;;;;13.80;99.90;;;;;;5039253;28;20073;-67
2022/09/25 14:46:55;;;;;;;;;;;13.90;99.90;;;;;;5049267;28;19963;-66
2022/09/25 14:49:24;;;;;;;;;;;13.90;99.90;;;;;;5060584;28;19973;-66
2022/09/25 14:51:53;;;;;;;;;;;13.90;99.90;;;;;;5071819;28;20439;-66
2022/09/25 14:54:22;;;;;;;;;;;14.00;99.90;;;;;;5053838;28;19971;-67
2022/09/25 14:56:53;;;;;;;;;;;14.10;99.90;;;;;;5072355;28;20346;-66
2022/09/25 14:59:25;;;;;;;;;;;14.00;99.90;;;;;;5072178;28;20402;-66
2022/09/25 15:01:54;;;;;;;;;;;14.00;99.90;;;;;;5071849;28;19973;-66